sensor_id;sensor_type;location;lat;lon;timestamp;P1;durP1;ratioP1;P2;durP2;ratioP2
70829;SDS011;58451;51.550;7.208;2022-12-18T00:01:00;71.20;;;25.00;;
70829;SDS011;58451;51.550;7.208;2022-12-18T00:02:37;81.20;;;26.50;;
70829;SDS011;58451;51.550;7.208;2022-12-18T00:04:24;72.60;;;25.50;;
70829;SDS011;58451;51.550;7.208;2022-12-18T00:05:57;80.40;;;24.50;;
70829;SDS011;58451;51.550;7.208;2022-12-18T00:07:29;80.30;;;26.40;;
70829;SDS011;58451;51.550;7.208;2022-12-18T00:09:01;81.50;;;27.20;;
70829;SDS011;58451;51.550;7.208;2022-12-18T00:10:35;77.40;;;26.60;;
70829;SDS011;58451;51.550;7.208;2022-12-18T00:12:07;91.80;;;28.30;;
70829;SDS011;58451;51.550;7.208;2022-12-18T00:13:48;79.20;;;26.80;;
70829;SDS011;58451;51.550;7.208;2022-12-18T00:15:20;76.80;;;26.40;;
70829;SDS011;58451;51.550;7.208;2022-12-18T00:16:54;81.30;;;26.50;;
70829;SDS011;58451;51.550;7.208;2022-12-18T00:18:32;81.30;;;26.70;;
70829;SDS011;58451;51.550;7.208;2022-12-18T00:20:10;84.60;;;28.40;;
70829;SDS011;58451;51.550;7.208;2022-12-18T00:21:44;79.50;;;27.00;;
70829;SDS011;58451;51.550;7.208;2022-12-18T00:23:16;84.10;;;27.60;;
70829;SDS011;58451;51.550;7.208;2022-12-18T00:24:49;85.40;;;27.80;;
70829;SDS011;58451;51.550;7.208;2022-12-18T00:26:30;79.10;;;27.90;;
70829;SDS011;58451;51.550;7.208;2022-12-18T00:28:04;81.00;;;27.20;;
70829;SDS011;58451;51.550;7.208;2022-12-18T00:29:39;82.70;;;27.40;;
70829;SDS011;58451;51.550;7.208;2022-12-18T00:31:14;83.30;;;27.00;;
70829;SDS011;58451;51.550;7.208;2022-12-18T00:32:49;76.50;;;26.20;;
70829;SDS011;58451;51.550;7.208;2022-12-18T00:34:21;81.40;;;26.30;;
70829;SDS011;58451;51.550;7.208;2022-12-18T00:36:07;79.60;;;25.10;;
70829;SDS011;58451;51.550;7.208;2022-12-18T00:37:42;67.10;;;23.50;;
70829;SDS011;58451;51.550;7.208;2022-12-18T00:39:15;49.10;;;16.20;;
70829;SDS011;58451;51.550;7.208;2022-12-18T00:40:48;70.40;;;22.40;;
70829;SDS011;58451;51.550;7.208;2022-12-18T00:42:20;69.00;;;24.00;;
70829;SDS011;58451;51.550;7.208;2022-12-18T00:44:14;74.70;;;24.40;;
70829;SDS011;58451;51.550;7.208;2022-12-18T00:45:48;78.70;;;25.70;;
70829;SDS011;58451;51.550;7.208;2022-12-18T00:47:24;79.80;;;25.30;;
70829;SDS011;58451;51.550;7.208;2022-12-18T00:48:56;78.80;;;26.30;;
70829;SDS011;58451;51.550;7.208;2022-12-18T00:50:28;79.10;;;25.50;;
70829;SDS011;58451;51.550;7.208;2022-12-18T00:52:00;71.80;;;24.50;;
70829;SDS011;58451;51.550;7.208;2022-12-18T00:53:32;76.60;;;25.20;;
70829;SDS011;58451;51.550;7.208;2022-12-18T00:55:04;86.70;;;25.70;;
70829;SDS011;58451;51.550;7.208;2022-12-18T00:56:39;77.10;;;26.40;;
70829;SDS011;58451;51.550;7.208;2022-12-18T00:58:20;72.40;;;24.60;;
70829;SDS011;58451;51.550;7.208;2022-12-18T00:59:52;79.00;;;26.80;;
70829;SDS011;58451;51.550;7.208;2022-12-18T01:01:24;80.20;;;25.70;;
70829;SDS011;58451;51.550;7.208;2022-12-18T01:02:56;78.00;;;25.90;;
70829;SDS011;58451;51.550;7.208;2022-12-18T01:04:31;80.20;;;26.70;;
70829;SDS011;58451;51.550;7.208;2022-12-18T01:06:09;74.40;;;24.70;;
70829;SDS011;58451;51.550;7.208;2022-12-18T01:07:44;66.30;;;23.80;;
70829;SDS011;58451;51.550;7.208;2022-12-18T01:09:16;68.70;;;23.00;;
70829;SDS011;58451;51.550;7.208;2022-12-18T01:10:48;65.90;;;22.10;;
70829;SDS011;58451;51.550;7.208;2022-12-18T01:12:20;34.90;;;10.80;;
70829;SDS011;58451;51.550;7.208;2022-12-18T01:13:54;66.60;;;21.60;;
70829;SDS011;58451;51.550;7.208;2022-12-18T01:15:27;72.10;;;22.80;;
70829;SDS011;58451;51.550;7.208;2022-12-18T01:16:59;57.00;;;19.80;;
70829;SDS011;58451;51.550;7.208;2022-12-18T01:18:31;56.80;;;19.00;;
70829;SDS011;58451;51.550;7.208;2022-12-18T01:20:03;64.60;;;22.60;;
70829;SDS011;58451;51.550;7.208;2022-12-18T01:21:37;67.50;;;23.60;;
70829;SDS011;58451;51.550;7.208;2022-12-18T01:23:09;67.50;;;23.80;;
70829;SDS011;58451;51.550;7.208;2022-12-18T01:24:41;64.40;;;21.20;;
70829;SDS011;58451;51.550;7.208;2022-12-18T01:26:18;72.40;;;23.60;;
70829;SDS011;58451;51.550;7.208;2022-12-18T01:27:53;70.30;;;22.10;;
70829;SDS011;58451;51.550;7.208;2022-12-18T01:29:29;56.10;;;19.40;;
70829;SDS011;58451;51.550;7.208;2022-12-18T01:31:30;55.40;;;18.60;;
70829;SDS011;58451;51.550;7.208;2022-12-18T01:33:06;68.60;;;22.80;;
70829;SDS011;58451;51.550;7.208;2022-12-18T01:34:39;65.30;;;21.40;;
70829;SDS011;58451;51.550;7.208;2022-12-18T01:36:17;63.80;;;23.10;;
70829;SDS011;58451;51.550;7.208;2022-12-18T01:37:57;70.70;;;23.30;;
70829;SDS011;58451;51.550;7.208;2022-12-18T01:39:32;76.70;;;24.20;;
70829;SDS011;58451;51.550;7.208;2022-12-18T01:41:04;68.90;;;22.80;;
70829;SDS011;58451;51.550;7.208;2022-12-18T01:42:37;62.70;;;23.80;;
70829;SDS011;58451;51.550;7.208;2022-12-18T01:46:36;66.00;;;22.40;;
70829;SDS011;58451;51.550;7.208;2022-12-18T01:48:09;61.50;;;22.70;;
70829;SDS011;58451;51.550;7.208;2022-12-18T01:49:40;69.10;;;23.20;;
70829;SDS011;58451;51.550;7.208;2022-12-18T01:51:15;67.90;;;23.70;;
70829;SDS011;58451;51.550;7.208;2022-12-18T01:52:51;65.90;;;22.40;;
70829;SDS011;58451;51.550;7.208;2022-12-18T01:54:27;67.40;;;23.40;;
70829;SDS011;58451;51.550;7.208;2022-12-18T01:56:00;62.80;;;23.20;;
70829;SDS011;58451;51.550;7.208;2022-12-18T01:57:32;68.20;;;23.00;;
70829;SDS011;58451;51.550;7.208;2022-12-18T01:59:07;63.90;;;24.20;;
70829;SDS011;58451;51.550;7.208;2022-12-18T02:00:41;67.30;;;23.20;;
70829;SDS011;58451;51.550;7.208;2022-12-18T02:02:15;65.30;;;23.60;;
70829;SDS011;58451;51.550;7.208;2022-12-18T02:03:48;61.90;;;22.60;;
70829;SDS011;58451;51.550;7.208;2022-12-18T02:07:46;63.20;;;20.50;;
70829;SDS011;58451;51.550;7.208;2022-12-18T02:09:28;61.20;;;21.30;;
70829;SDS011;58451;51.550;7.208;2022-12-18T02:18:30;58.80;;;20.60;;
70829;SDS011;58451;51.550;7.208;2022-12-18T02:20:19;65.10;;;22.80;;
70829;SDS011;58451;51.550;7.208;2022-12-18T02:27:44;70.80;;;21.70;;
70829;SDS011;58451;51.550;7.208;2022-12-18T02:29:22;59.10;;;21.20;;
70829;SDS011;58451;51.550;7.208;2022-12-18T02:31:04;64.40;;;22.40;;
70829;SDS011;58451;51.550;7.208;2022-12-18T02:32:45;60.40;;;21.10;;
70829;SDS011;58451;51.550;7.208;2022-12-18T02:34:24;58.60;;;21.20;;
70829;SDS011;58451;51.550;7.208;2022-12-18T02:36:05;58.20;;;20.60;;
70829;SDS011;58451;51.550;7.208;2022-12-18T02:37:43;63.70;;;23.00;;
70829;SDS011;58451;51.550;7.208;2022-12-18T02:39:19;64.10;;;22.60;;
70829;SDS011;58451;51.550;7.208;2022-12-18T02:41:02;67.70;;;21.90;;
70829;SDS011;58451;51.550;7.208;2022-12-18T02:42:35;63.60;;;22.20;;
70829;SDS011;58451;51.550;7.208;2022-12-18T02:44:12;60.10;;;21.50;;
70829;SDS011;58451;51.550;7.208;2022-12-18T02:45:59;62.80;;;22.30;;
70829;SDS011;58451;51.550;7.208;2022-12-18T02:47:38;61.80;;;21.30;;
70829;SDS011;58451;51.550;7.208;2022-12-18T02:53:24;55.40;;;20.00;;
70829;SDS011;58451;51.550;7.208;2022-12-18T02:57:05;64.70;;;22.30;;
70829;SDS011;58451;51.550;7.208;2022-12-18T02:58:59;62.80;;;21.10;;
70829;SDS011;58451;51.550;7.208;2022-12-18T03:01:19;63.10;;;21.60;;
70829;SDS011;58451;51.550;7.208;2022-12-18T03:03:24;70.40;;;21.60;;
70829;SDS011;58451;51.550;7.208;2022-12-18T03:05:12;59.30;;;20.70;;
70829;SDS011;58451;51.550;7.208;2022-12-18T03:06:49;65.10;;;21.10;;
70829;SDS011;58451;51.550;7.208;2022-12-18T03:08:35;63.60;;;21.20;;
70829;SDS011;58451;51.550;7.208;2022-12-18T03:10:16;64.40;;;23.00;;
70829;SDS011;58451;51.550;7.208;2022-12-18T03:11:56;68.80;;;22.50;;
70829;SDS011;58451;51.550;7.208;2022-12-18T03:13:55;61.70;;;20.70;;
70829;SDS011;58451;51.550;7.208;2022-12-18T03:15:44;57.70;;;20.70;;
70829;SDS011;58451;51.550;7.208;2022-12-18T03:17:23;62.50;;;20.00;;
70829;SDS011;58451;51.550;7.208;2022-12-18T03:19:03;58.90;;;19.80;;
70829;SDS011;58451;51.550;7.208;2022-12-18T03:20:39;62.10;;;21.00;;
70829;SDS011;58451;51.550;7.208;2022-12-18T03:22:17;77.60;;;25.50;;
70829;SDS011;58451;51.550;7.208;2022-12-18T03:23:53;96.90;;;30.30;;
70829;SDS011;58451;51.550;7.208;2022-12-18T03:25:28;113.40;;;33.70;;
70829;SDS011;58451;51.550;7.208;2022-12-18T03:27:03;111.00;;;36.40;;
70829;SDS011;58451;51.550;7.208;2022-12-18T03:28:45;112.20;;;34.10;;
70829;SDS011;58451;51.550;7.208;2022-12-18T03:30:22;112.50;;;35.50;;
70829;SDS011;58451;51.550;7.208;2022-12-18T03:31:58;99.10;;;33.00;;
70829;SDS011;58451;51.550;7.208;2022-12-18T03:33:58;87.30;;;29.80;;
70829;SDS011;58451;51.550;7.208;2022-12-18T03:35:42;71.30;;;25.30;;
70829;SDS011;58451;51.550;7.208;2022-12-18T03:37:16;85.90;;;28.40;;
70829;SDS011;58451;51.550;7.208;2022-12-18T03:38:49;69.00;;;24.60;;
70829;SDS011;58451;51.550;7.208;2022-12-18T03:40:28;58.50;;;21.50;;
70829;SDS011;58451;51.550;7.208;2022-12-18T03:42:18;61.90;;;21.90;;
70829;SDS011;58451;51.550;7.208;2022-12-18T03:44:15;61.30;;;20.50;;
70829;SDS011;58451;51.550;7.208;2022-12-18T03:53:44;50.70;;;18.40;;
70829;SDS011;58451;51.550;7.208;2022-12-18T03:55:25;50.20;;;18.20;;
70829;SDS011;58451;51.550;7.208;2022-12-18T03:57:20;47.50;;;18.00;;
70829;SDS011;58451;51.550;7.208;2022-12-18T03:58:58;49.80;;;18.00;;
70829;SDS011;58451;51.550;7.208;2022-12-18T04:00:33;53.20;;;17.70;;
70829;SDS011;58451;51.550;7.208;2022-12-18T04:02:10;48.00;;;17.70;;
70829;SDS011;58451;51.550;7.208;2022-12-18T04:03:46;53.00;;;17.00;;
70829;SDS011;58451;51.550;7.208;2022-12-18T04:05:23;48.30;;;18.20;;
70829;SDS011;58451;51.550;7.208;2022-12-18T04:06:58;47.20;;;17.70;;
70829;SDS011;58451;51.550;7.208;2022-12-18T04:08:31;46.20;;;17.20;;
70829;SDS011;58451;51.550;7.208;2022-12-18T04:10:10;50.90;;;16.80;;
70829;SDS011;58451;51.550;7.208;2022-12-18T04:11:43;49.50;;;16.50;;
70829;SDS011;58451;51.550;7.208;2022-12-18T04:13:29;48.50;;;16.80;;
70829;SDS011;58451;51.550;7.208;2022-12-18T04:15:08;53.20;;;17.80;;
70829;SDS011;58451;51.550;7.208;2022-12-18T04:16:40;46.40;;;17.30;;
70829;SDS011;58451;51.550;7.208;2022-12-18T04:18:14;44.90;;;17.30;;
70829;SDS011;58451;51.550;7.208;2022-12-18T04:19:46;46.30;;;17.60;;
70829;SDS011;58451;51.550;7.208;2022-12-18T04:21:19;45.90;;;17.80;;
70829;SDS011;58451;51.550;7.208;2022-12-18T04:22:52;46.50;;;17.30;;
70829;SDS011;58451;51.550;7.208;2022-12-18T04:24:24;50.60;;;17.20;;
70829;SDS011;58451;51.550;7.208;2022-12-18T04:26:08;44.20;;;16.60;;
70829;SDS011;58451;51.550;7.208;2022-12-18T04:27:47;46.70;;;17.20;;
70829;SDS011;58451;51.550;7.208;2022-12-18T04:29:19;49.70;;;16.80;;
70829;SDS011;58451;51.550;7.208;2022-12-18T04:30:54;44.30;;;16.80;;
70829;SDS011;58451;51.550;7.208;2022-12-18T04:32:35;45.40;;;16.20;;
70829;SDS011;58451;51.550;7.208;2022-12-18T04:34:09;46.00;;;17.40;;
70829;SDS011;58451;51.550;7.208;2022-12-18T04:35:45;47.80;;;17.20;;
70829;SDS011;58451;51.550;7.208;2022-12-18T04:37:17;45.10;;;17.40;;
70829;SDS011;58451;51.550;7.208;2022-12-18T04:38:50;49.10;;;17.00;;
70829;SDS011;58451;51.550;7.208;2022-12-18T04:40:24;48.20;;;16.90;;
70829;SDS011;58451;51.550;7.208;2022-12-18T04:41:56;47.00;;;17.40;;
70829;SDS011;58451;51.550;7.208;2022-12-18T04:43:31;50.70;;;18.30;;
70829;SDS011;58451;51.550;7.208;2022-12-18T04:45:04;48.20;;;18.20;;
70829;SDS011;58451;51.550;7.208;2022-12-18T04:46:37;53.30;;;18.40;;
70829;SDS011;58451;51.550;7.208;2022-12-18T04:48:09;51.20;;;17.80;;
70829;SDS011;58451;51.550;7.208;2022-12-18T04:49:41;51.70;;;18.20;;
70829;SDS011;58451;51.550;7.208;2022-12-18T04:51:13;49.30;;;17.40;;
70829;SDS011;58451;51.550;7.208;2022-12-18T04:52:45;46.90;;;17.70;;
70829;SDS011;58451;51.550;7.208;2022-12-18T04:54:17;47.70;;;16.60;;
70829;SDS011;58451;51.550;7.208;2022-12-18T04:55:49;43.70;;;16.30;;
70829;SDS011;58451;51.550;7.208;2022-12-18T04:57:21;43.90;;;15.70;;
70829;SDS011;58451;51.550;7.208;2022-12-18T04:58:53;43.30;;;14.50;;
70829;SDS011;58451;51.550;7.208;2022-12-18T05:00:25;52.20;;;16.30;;
70829;SDS011;58451;51.550;7.208;2022-12-18T05:01:58;42.90;;;15.40;;
70829;SDS011;58451;51.550;7.208;2022-12-18T05:03:30;41.00;;;15.20;;
70829;SDS011;58451;51.550;7.208;2022-12-18T05:05:02;42.50;;;15.10;;
70829;SDS011;58451;51.550;7.208;2022-12-18T05:06:36;43.00;;;15.80;;
70829;SDS011;58451;51.550;7.208;2022-12-18T05:08:08;39.20;;;14.80;;
70829;SDS011;58451;51.550;7.208;2022-12-18T05:09:41;44.70;;;15.20;;
70829;SDS011;58451;51.550;7.208;2022-12-18T05:11:14;39.90;;;15.00;;
70829;SDS011;58451;51.550;7.208;2022-12-18T05:12:50;39.90;;;14.60;;
70829;SDS011;58451;51.550;7.208;2022-12-18T05:14:32;40.70;;;15.60;;
70829;SDS011;58451;51.550;7.208;2022-12-18T05:16:04;40.70;;;15.30;;
70829;SDS011;58451;51.550;7.208;2022-12-18T05:17:37;41.50;;;15.30;;
70829;SDS011;58451;51.550;7.208;2022-12-18T05:19:09;42.00;;;16.10;;
70829;SDS011;58451;51.550;7.208;2022-12-18T05:20:41;41.50;;;16.70;;
70829;SDS011;58451;51.550;7.208;2022-12-18T05:22:13;46.70;;;16.50;;
70829;SDS011;58451;51.550;7.208;2022-12-18T05:23:45;45.30;;;16.60;;
70829;SDS011;58451;51.550;7.208;2022-12-18T05:25:17;43.90;;;16.00;;
70829;SDS011;58451;51.550;7.208;2022-12-18T05:26:51;39.70;;;14.00;;
70829;SDS011;58451;51.550;7.208;2022-12-18T05:28:24;43.80;;;15.10;;
70829;SDS011;58451;51.550;7.208;2022-12-18T05:29:57;47.00;;;17.40;;
70829;SDS011;58451;51.550;7.208;2022-12-18T05:31:29;44.90;;;16.30;;
70829;SDS011;58451;51.550;7.208;2022-12-18T05:33:08;42.00;;;16.10;;
70829;SDS011;58451;51.550;7.208;2022-12-18T05:34:40;44.20;;;15.50;;
70829;SDS011;58451;51.550;7.208;2022-12-18T05:36:17;44.10;;;15.40;;
70829;SDS011;58451;51.550;7.208;2022-12-18T05:37:49;43.30;;;15.60;;
70829;SDS011;58451;51.550;7.208;2022-12-18T05:39:24;45.80;;;15.80;;
70829;SDS011;58451;51.550;7.208;2022-12-18T05:40:58;41.20;;;14.70;;
70829;SDS011;58451;51.550;7.208;2022-12-18T05:42:31;45.80;;;14.60;;
70829;SDS011;58451;51.550;7.208;2022-12-18T05:44:03;42.00;;;15.20;;
70829;SDS011;58451;51.550;7.208;2022-12-18T05:45:37;41.00;;;14.40;;
70829;SDS011;58451;51.550;7.208;2022-12-18T05:47:10;46.20;;;15.80;;
70829;SDS011;58451;51.550;7.208;2022-12-18T05:48:42;41.90;;;15.90;;
70829;SDS011;58451;51.550;7.208;2022-12-18T05:50:15;42.50;;;15.90;;
70829;SDS011;58451;51.550;7.208;2022-12-18T05:51:47;44.00;;;15.90;;
70829;SDS011;58451;51.550;7.208;2022-12-18T05:53:20;43.10;;;15.00;;
70829;SDS011;58451;51.550;7.208;2022-12-18T05:54:52;40.20;;;15.20;;
70829;SDS011;58451;51.550;7.208;2022-12-18T05:56:24;41.10;;;15.40;;
70829;SDS011;58451;51.550;7.208;2022-12-18T05:57:56;43.90;;;16.00;;
70829;SDS011;58451;51.550;7.208;2022-12-18T05:59:30;39.00;;;15.90;;
70829;SDS011;58451;51.550;7.208;2022-12-18T06:01:15;38.60;;;15.00;;
70829;SDS011;58451;51.550;7.208;2022-12-18T06:02:52;46.00;;;14.80;;
70829;SDS011;58451;51.550;7.208;2022-12-18T06:04:26;45.70;;;16.10;;
70829;SDS011;58451;51.550;7.208;2022-12-18T06:06:01;45.00;;;15.40;;
70829;SDS011;58451;51.550;7.208;2022-12-18T06:07:33;42.10;;;16.20;;
70829;SDS011;58451;51.550;7.208;2022-12-18T06:09:05;43.60;;;15.60;;
70829;SDS011;58451;51.550;7.208;2022-12-18T06:10:40;44.60;;;14.80;;
70829;SDS011;58451;51.550;7.208;2022-12-18T06:12:13;44.70;;;16.30;;
70829;SDS011;58451;51.550;7.208;2022-12-18T06:13:46;49.10;;;17.90;;
70829;SDS011;58451;51.550;7.208;2022-12-18T06:15:27;47.70;;;17.00;;
70829;SDS011;58451;51.550;7.208;2022-12-18T06:16:59;45.40;;;17.20;;
70829;SDS011;58451;51.550;7.208;2022-12-18T06:18:32;45.90;;;15.90;;
70829;SDS011;58451;51.550;7.208;2022-12-18T06:20:04;45.90;;;16.20;;
70829;SDS011;58451;51.550;7.208;2022-12-18T06:21:37;40.80;;;15.20;;
70829;SDS011;58451;51.550;7.208;2022-12-18T06:23:09;45.30;;;15.00;;
70829;SDS011;58451;51.550;7.208;2022-12-18T06:24:41;47.40;;;16.20;;
70829;SDS011;58451;51.550;7.208;2022-12-18T06:26:13;39.60;;;14.50;;
70829;SDS011;58451;51.550;7.208;2022-12-18T06:27:47;43.70;;;15.50;;
70829;SDS011;58451;51.550;7.208;2022-12-18T06:29:19;41.50;;;14.60;;
70829;SDS011;58451;51.550;7.208;2022-12-18T06:30:51;41.10;;;15.60;;
70829;SDS011;58451;51.550;7.208;2022-12-18T06:32:26;41.70;;;15.00;;
70829;SDS011;58451;51.550;7.208;2022-12-18T06:34:01;40.50;;;14.30;;
70829;SDS011;58451;51.550;7.208;2022-12-18T06:35:36;39.10;;;14.20;;
70829;SDS011;58451;51.550;7.208;2022-12-18T06:37:10;38.10;;;13.80;;
70829;SDS011;58451;51.550;7.208;2022-12-18T06:38:44;39.30;;;14.20;;
70829;SDS011;58451;51.550;7.208;2022-12-18T06:40:16;38.90;;;13.80;;
70829;SDS011;58451;51.550;7.208;2022-12-18T06:41:48;40.50;;;14.10;;
70829;SDS011;58451;51.550;7.208;2022-12-18T06:43:20;38.60;;;14.20;;
70829;SDS011;58451;51.550;7.208;2022-12-18T06:44:54;37.30;;;13.90;;
70829;SDS011;58451;51.550;7.208;2022-12-18T06:46:26;41.50;;;15.00;;
70829;SDS011;58451;51.550;7.208;2022-12-18T06:47:59;36.80;;;14.90;;
70829;SDS011;58451;51.550;7.208;2022-12-18T06:49:31;36.00;;;13.40;;
70829;SDS011;58451;51.550;7.208;2022-12-18T06:51:05;42.10;;;15.30;;
70829;SDS011;58451;51.550;7.208;2022-12-18T06:52:37;46.70;;;14.90;;
70829;SDS011;58451;51.550;7.208;2022-12-18T06:54:10;40.90;;;14.90;;
70829;SDS011;58451;51.550;7.208;2022-12-18T06:55:42;41.70;;;15.20;;
70829;SDS011;58451;51.550;7.208;2022-12-18T06:57:15;39.50;;;14.90;;
70829;SDS011;58451;51.550;7.208;2022-12-18T06:58:49;44.00;;;15.30;;
70829;SDS011;58451;51.550;7.208;2022-12-18T07:00:21;46.90;;;15.60;;
70829;SDS011;58451;51.550;7.208;2022-12-18T07:01:53;42.40;;;15.30;;
70829;SDS011;58451;51.550;7.208;2022-12-18T07:03:25;41.90;;;14.60;;
70829;SDS011;58451;51.550;7.208;2022-12-18T07:04:58;43.00;;;15.00;;
70829;SDS011;58451;51.550;7.208;2022-12-18T07:06:33;39.20;;;14.80;;
70829;SDS011;58451;51.550;7.208;2022-12-18T07:08:06;38.10;;;14.60;;
70829;SDS011;58451;51.550;7.208;2022-12-18T07:09:40;36.10;;;14.10;;
70829;SDS011;58451;51.550;7.208;2022-12-18T07:11:13;39.50;;;14.60;;
70829;SDS011;58451;51.550;7.208;2022-12-18T07:12:45;39.50;;;13.60;;
70829;SDS011;58451;51.550;7.208;2022-12-18T07:14:17;39.70;;;14.30;;
70829;SDS011;58451;51.550;7.208;2022-12-18T07:15:49;39.10;;;14.40;;
70829;SDS011;58451;51.550;7.208;2022-12-18T07:17:22;39.60;;;14.70;;
70829;SDS011;58451;51.550;7.208;2022-12-18T07:18:55;37.90;;;14.30;;
70829;SDS011;58451;51.550;7.208;2022-12-18T07:20:27;42.20;;;14.70;;
70829;SDS011;58451;51.550;7.208;2022-12-18T07:22:00;42.90;;;14.60;;
70829;SDS011;58451;51.550;7.208;2022-12-18T07:23:35;39.80;;;13.80;;
70829;SDS011;58451;51.550;7.208;2022-12-18T07:25:08;39.20;;;13.90;;
70829;SDS011;58451;51.550;7.208;2022-12-18T07:26:40;42.20;;;13.30;;
70829;SDS011;58451;51.550;7.208;2022-12-18T07:28:12;42.40;;;14.50;;
70829;SDS011;58451;51.550;7.208;2022-12-18T07:29:48;42.40;;;14.00;;
70829;SDS011;58451;51.550;7.208;2022-12-18T07:31:24;42.60;;;14.90;;
70829;SDS011;58451;51.550;7.208;2022-12-18T07:32:56;41.50;;;14.30;;
70829;SDS011;58451;51.550;7.208;2022-12-18T07:34:28;36.50;;;13.30;;
70829;SDS011;58451;51.550;7.208;2022-12-18T07:36:01;42.80;;;15.20;;
70829;SDS011;58451;51.550;7.208;2022-12-18T07:37:35;40.50;;;15.50;;
70829;SDS011;58451;51.550;7.208;2022-12-18T07:39:12;39.00;;;14.30;;
70829;SDS011;58451;51.550;7.208;2022-12-18T07:40:44;36.10;;;13.60;;
70829;SDS011;58451;51.550;7.208;2022-12-18T07:42:21;35.70;;;13.80;;
70829;SDS011;58451;51.550;7.208;2022-12-18T07:44:09;40.20;;;13.90;;
70829;SDS011;58451;51.550;7.208;2022-12-18T07:45:42;38.90;;;12.90;;
70829;SDS011;58451;51.550;7.208;2022-12-18T07:47:16;38.30;;;14.40;;
70829;SDS011;58451;51.550;7.208;2022-12-18T07:48:49;44.00;;;13.80;;
70829;SDS011;58451;51.550;7.208;2022-12-18T07:50:21;40.80;;;14.40;;
70829;SDS011;58451;51.550;7.208;2022-12-18T07:51:56;38.20;;;13.80;;
70829;SDS011;58451;51.550;7.208;2022-12-18T07:53:34;34.50;;;13.50;;
70829;SDS011;58451;51.550;7.208;2022-12-18T07:55:11;35.00;;;13.10;;
70829;SDS011;58451;51.550;7.208;2022-12-18T07:56:47;37.00;;;12.70;;
70829;SDS011;58451;51.550;7.208;2022-12-18T07:58:19;39.60;;;13.50;;
70829;SDS011;58451;51.550;7.208;2022-12-18T07:59:50;37.70;;;13.70;;
70829;SDS011;58451;51.550;7.208;2022-12-18T08:01:22;38.90;;;13.60;;
70829;SDS011;58451;51.550;7.208;2022-12-18T08:02:55;35.70;;;14.40;;
70829;SDS011;58451;51.550;7.208;2022-12-18T08:04:27;37.60;;;13.30;;
70829;SDS011;58451;51.550;7.208;2022-12-18T08:06:00;33.60;;;13.20;;
70829;SDS011;58451;51.550;7.208;2022-12-18T08:07:33;35.10;;;12.90;;
70829;SDS011;58451;51.550;7.208;2022-12-18T08:09:04;40.00;;;13.30;;
70829;SDS011;58451;51.550;7.208;2022-12-18T08:10:37;39.90;;;14.30;;
70829;SDS011;58451;51.550;7.208;2022-12-18T08:12:10;34.00;;;13.20;;
70829;SDS011;58451;51.550;7.208;2022-12-18T08:13:42;36.30;;;12.90;;
70829;SDS011;58451;51.550;7.208;2022-12-18T08:15:14;38.20;;;12.50;;
70829;SDS011;58451;51.550;7.208;2022-12-18T08:16:46;36.50;;;13.00;;
70829;SDS011;58451;51.550;7.208;2022-12-18T08:18:18;35.30;;;12.70;;
70829;SDS011;58451;51.550;7.208;2022-12-18T08:19:50;33.80;;;12.90;;
70829;SDS011;58451;51.550;7.208;2022-12-18T08:21:25;34.20;;;12.60;;
70829;SDS011;58451;51.550;7.208;2022-12-18T08:23:01;32.50;;;11.50;;
70829;SDS011;58451;51.550;7.208;2022-12-18T08:24:32;36.30;;;13.90;;
70829;SDS011;58451;51.550;7.208;2022-12-18T08:26:04;32.70;;;13.00;;
70829;SDS011;58451;51.550;7.208;2022-12-18T08:27:37;38.60;;;13.70;;
70829;SDS011;58451;51.550;7.208;2022-12-18T08:29:09;37.40;;;13.60;;
70829;SDS011;58451;51.550;7.208;2022-12-18T08:30:42;34.40;;;13.30;;
70829;SDS011;58451;51.550;7.208;2022-12-18T08:32:13;40.80;;;14.70;;
70829;SDS011;58451;51.550;7.208;2022-12-18T08:33:48;41.90;;;14.00;;
70829;SDS011;58451;51.550;7.208;2022-12-18T08:35:21;38.50;;;14.00;;
70829;SDS011;58451;51.550;7.208;2022-12-18T08:36:53;38.20;;;13.90;;
70829;SDS011;58451;51.550;7.208;2022-12-18T08:38:24;45.10;;;14.90;;
70829;SDS011;58451;51.550;7.208;2022-12-18T08:39:56;31.70;;;12.30;;
70829;SDS011;58451;51.550;7.208;2022-12-18T08:41:28;34.60;;;13.80;;
70829;SDS011;58451;51.550;7.208;2022-12-18T08:43:01;37.80;;;14.20;;
70829;SDS011;58451;51.550;7.208;2022-12-18T08:44:51;35.50;;;12.80;;
70829;SDS011;58451;51.550;7.208;2022-12-18T08:46:25;37.30;;;13.50;;
70829;SDS011;58451;51.550;7.208;2022-12-18T08:47:58;36.20;;;12.90;;
70829;SDS011;58451;51.550;7.208;2022-12-18T08:49:30;39.10;;;13.10;;
70829;SDS011;58451;51.550;7.208;2022-12-18T08:51:05;42.30;;;16.00;;
70829;SDS011;58451;51.550;7.208;2022-12-18T08:52:37;41.90;;;14.40;;
70829;SDS011;58451;51.550;7.208;2022-12-18T08:54:11;34.90;;;13.30;;
70829;SDS011;58451;51.550;7.208;2022-12-18T08:55:45;33.10;;;13.70;;
70829;SDS011;58451;51.550;7.208;2022-12-18T08:57:20;31.40;;;12.10;;
70829;SDS011;58451;51.550;7.208;2022-12-18T08:58:53;34.10;;;13.00;;
70829;SDS011;58451;51.550;7.208;2022-12-18T09:00:26;31.00;;;12.40;;
70829;SDS011;58451;51.550;7.208;2022-12-18T09:01:58;33.10;;;12.90;;
70829;SDS011;58451;51.550;7.208;2022-12-18T09:03:30;37.30;;;13.20;;
70829;SDS011;58451;51.550;7.208;2022-12-18T09:05:02;33.30;;;13.20;;
70829;SDS011;58451;51.550;7.208;2022-12-18T09:06:36;37.10;;;13.40;;
70829;SDS011;58451;51.550;7.208;2022-12-18T09:08:09;33.20;;;13.30;;
70829;SDS011;58451;51.550;7.208;2022-12-18T09:09:42;35.30;;;13.20;;
70829;SDS011;58451;51.550;7.208;2022-12-18T09:11:19;39.30;;;13.90;;
70829;SDS011;58451;51.550;7.208;2022-12-18T09:12:51;32.20;;;12.60;;
70829;SDS011;58451;51.550;7.208;2022-12-18T09:14:23;32.90;;;12.90;;
70829;SDS011;58451;51.550;7.208;2022-12-18T09:15:56;34.70;;;14.30;;
70829;SDS011;58451;51.550;7.208;2022-12-18T09:17:28;34.00;;;13.50;;
70829;SDS011;58451;51.550;7.208;2022-12-18T09:19:02;35.00;;;13.50;;
70829;SDS011;58451;51.550;7.208;2022-12-18T09:20:36;33.80;;;13.10;;
70829;SDS011;58451;51.550;7.208;2022-12-18T09:22:09;35.60;;;14.00;;
70829;SDS011;58451;51.550;7.208;2022-12-18T09:23:41;33.30;;;13.10;;
70829;SDS011;58451;51.550;7.208;2022-12-18T09:25:13;33.20;;;13.20;;
70829;SDS011;58451;51.550;7.208;2022-12-18T09:26:47;30.60;;;11.20;;
70829;SDS011;58451;51.550;7.208;2022-12-18T09:28:21;33.50;;;13.30;;
70829;SDS011;58451;51.550;7.208;2022-12-18T09:29:53;33.40;;;12.10;;
70829;SDS011;58451;51.550;7.208;2022-12-18T09:31:25;31.70;;;12.90;;
70829;SDS011;58451;51.550;7.208;2022-12-18T09:32:57;32.00;;;12.60;;
70829;SDS011;58451;51.550;7.208;2022-12-18T09:34:28;32.80;;;12.40;;
70829;SDS011;58451;51.550;7.208;2022-12-18T09:36:02;32.10;;;12.10;;
70829;SDS011;58451;51.550;7.208;2022-12-18T09:37:35;32.50;;;11.90;;
70829;SDS011;58451;51.550;7.208;2022-12-18T09:39:07;32.80;;;12.30;;
70829;SDS011;58451;51.550;7.208;2022-12-18T09:54:01;29.60;;;10.80;;
70829;SDS011;58451;51.550;7.208;2022-12-18T09:55:44;27.10;;;10.30;;
70829;SDS011;58451;51.550;7.208;2022-12-18T09:57:20;28.30;;;11.70;;
70829;SDS011;58451;51.550;7.208;2022-12-18T09:59:00;27.00;;;10.70;;
70829;SDS011;58451;51.550;7.208;2022-12-18T10:00:34;28.60;;;11.50;;
70829;SDS011;58451;51.550;7.208;2022-12-18T10:02:23;28.20;;;11.80;;